sensor_id;sensor_type;location;lat;lon;timestamp;P1;durP1;ratioP1;P2;durP2;ratioP2
56075;SDS011;41951;49.022;12.066;2023-12-20T00:01:46;10.38;;;5.68;;
56075;SDS011;41951;49.022;12.066;2023-12-20T00:04:12;11.07;;;6.00;;
56075;SDS011;41951;49.022;12.066;2023-12-20T00:06:37;10.27;;;5.88;;
56075;SDS011;41951;49.022;12.066;2023-12-20T00:09:03;12.98;;;6.55;;
56075;SDS011;41951;49.022;12.066;2023-12-20T00:11:28;9.70;;;5.95;;
56075;SDS011;41951;49.022;12.066;2023-12-20T00:13:54;11.63;;;6.38;;
56075;SDS011;41951;49.022;12.066;2023-12-20T00:16:20;11.30;;;6.00;;
56075;SDS011;41951;49.022;12.066;2023-12-20T00:18:45;9.60;;;5.93;;
56075;SDS011;41951;49.022;12.066;2023-12-20T00:21:11;13.07;;;6.72;;
56075;SDS011;41951;49.022;12.066;2023-12-20T00:23:36;10.07;;;5.78;;
56075;SDS011;41951;49.022;12.066;2023-12-20T00:26:02;9.88;;;5.70;;
56075;SDS011;41951;49.022;12.066;2023-12-20T00:28:28;11.88;;;6.18;;
56075;SDS011;41951;49.022;12.066;2023-12-20T00:30:53;10.07;;;5.70;;
56075;SDS011;41951;49.022;12.066;2023-12-20T00:33:19;9.48;;;5.97;;
56075;SDS011;41951;49.022;12.066;2023-12-20T00:35:45;10.20;;;6.30;;
56075;SDS011;41951;49.022;12.066;2023-12-20T00:38:10;11.13;;;6.55;;
56075;SDS011;41951;49.022;12.066;2023-12-20T00:40:36;10.77;;;6.35;;
56075;SDS011;41951;49.022;12.066;2023-12-20T00:43:02;11.18;;;6.32;;
56075;SDS011;41951;49.022;12.066;2023-12-20T00:45:28;10.57;;;5.90;;
56075;SDS011;41951;49.022;12.066;2023-12-20T00:47:54;9.50;;;5.78;;
56075;SDS011;41951;49.022;12.066;2023-12-20T00:50:19;11.05;;;6.13;;
56075;SDS011;41951;49.022;12.066;2023-12-20T00:52:46;11.30;;;5.97;;
56075;SDS011;41951;49.022;12.066;2023-12-20T00:55:12;10.52;;;6.07;;
56075;SDS011;41951;49.022;12.066;2023-12-20T00:57:38;8.52;;;5.32;;
56075;SDS011;41951;49.022;12.066;2023-12-20T01:00:04;9.18;;;5.50;;
56075;SDS011;41951;49.022;12.066;2023-12-20T01:02:30;10.43;;;5.60;;
56075;SDS011;41951;49.022;12.066;2023-12-20T01:04:56;9.48;;;5.38;;
56075;SDS011;41951;49.022;12.066;2023-12-20T01:07:22;8.23;;;5.05;;
56075;SDS011;41951;49.022;12.066;2023-12-20T01:09:47;11.43;;;5.72;;
56075;SDS011;41951;49.022;12.066;2023-12-20T01:12:13;9.40;;;5.38;;
56075;SDS011;41951;49.022;12.066;2023-12-20T01:14:38;9.07;;;5.50;;
56075;SDS011;41951;49.022;12.066;2023-12-20T01:17:04;9.10;;;5.70;;
56075;SDS011;41951;49.022;12.066;2023-12-20T01:19:30;11.00;;;5.68;;
56075;SDS011;41951;49.022;12.066;2023-12-20T01:21:55;7.78;;;5.20;;
56075;SDS011;41951;49.022;12.066;2023-12-20T01:24:21;11.70;;;6.05;;
56075;SDS011;41951;49.022;12.066;2023-12-20T01:26:47;12.32;;;6.28;;
56075;SDS011;41951;49.022;12.066;2023-12-20T01:29:12;11.07;;;6.22;;
56075;SDS011;41951;49.022;12.066;2023-12-20T01:31:39;10.93;;;6.40;;
56075;SDS011;41951;49.022;12.066;2023-12-20T01:34:05;10.00;;;5.93;;
56075;SDS011;41951;49.022;12.066;2023-12-20T01:36:31;12.13;;;7.03;;
56075;SDS011;41951;49.022;12.066;2023-12-20T01:38:56;9.57;;;5.90;;
56075;SDS011;41951;49.022;12.066;2023-12-20T01:41:22;9.25;;;6.03;;
56075;SDS011;41951;49.022;12.066;2023-12-20T01:43:48;12.93;;;6.72;;
56075;SDS011;41951;49.022;12.066;2023-12-20T01:46:14;10.65;;;7.40;;
56075;SDS011;41951;49.022;12.066;2023-12-20T01:48:40;10.35;;;6.57;;
56075;SDS011;41951;49.022;12.066;2023-12-20T01:51:06;13.88;;;6.35;;
56075;SDS011;41951;49.022;12.066;2023-12-20T01:53:32;11.27;;;6.00;;
56075;SDS011;41951;49.022;12.066;2023-12-20T01:55:59;11.43;;;6.82;;
56075;SDS011;41951;49.022;12.066;2023-12-20T01:58:24;12.98;;;6.75;;
56075;SDS011;41951;49.022;12.066;2023-12-20T02:00:51;12.40;;;6.45;;
56075;SDS011;41951;49.022;12.066;2023-12-20T02:03:17;8.18;;;5.60;;
56075;SDS011;41951;49.022;12.066;2023-12-20T02:05:43;10.73;;;6.93;;
56075;SDS011;41951;49.022;12.066;2023-12-20T02:08:10;10.30;;;6.22;;
56075;SDS011;41951;49.022;12.066;2023-12-20T02:10:36;11.50;;;6.28;;
56075;SDS011;41951;49.022;12.066;2023-12-20T02:13:03;9.80;;;6.10;;
56075;SDS011;41951;49.022;12.066;2023-12-20T02:15:29;10.68;;;6.25;;
56075;SDS011;41951;49.022;12.066;2023-12-20T02:17:55;11.98;;;6.43;;
56075;SDS011;41951;49.022;12.066;2023-12-20T02:20:20;11.35;;;7.07;;
56075;SDS011;41951;49.022;12.066;2023-12-20T02:22:46;10.20;;;5.97;;
56075;SDS011;41951;49.022;12.066;2023-12-20T02:25:11;9.80;;;5.70;;
56075;SDS011;41951;49.022;12.066;2023-12-20T02:27:37;10.25;;;5.72;;
56075;SDS011;41951;49.022;12.066;2023-12-20T02:30:04;10.18;;;5.50;;
56075;SDS011;41951;49.022;12.066;2023-12-20T02:32:31;15.73;;;6.25;;
56075;SDS011;41951;49.022;12.066;2023-12-20T02:34:57;9.88;;;4.72;;
56075;SDS011;41951;49.022;12.066;2023-12-20T02:37:23;10.27;;;5.80;;
56075;SDS011;41951;49.022;12.066;2023-12-20T02:39:48;8.77;;;5.18;;
56075;SDS011;41951;49.022;12.066;2023-12-20T02:42:14;10.40;;;5.78;;
56075;SDS011;41951;49.022;12.066;2023-12-20T02:44:39;7.30;;;4.45;;
56075;SDS011;41951;49.022;12.066;2023-12-20T02:47:05;9.45;;;5.30;;
56075;SDS011;41951;49.022;12.066;2023-12-20T02:49:31;10.45;;;5.28;;
56075;SDS011;41951;49.022;12.066;2023-12-20T02:51:56;11.48;;;5.75;;
56075;SDS011;41951;49.022;12.066;2023-12-20T02:54:22;8.88;;;4.95;;
56075;SDS011;41951;49.022;12.066;2023-12-20T02:56:47;12.48;;;4.85;;
56075;SDS011;41951;49.022;12.066;2023-12-20T02:59:13;8.32;;;4.88;;
56075;SDS011;41951;49.022;12.066;2023-12-20T03:01:43;11.10;;;5.57;;
56075;SDS011;41951;49.022;12.066;2023-12-20T03:04:09;8.40;;;4.63;;
56075;SDS011;41951;49.022;12.066;2023-12-20T03:06:35;9.93;;;4.97;;
56075;SDS011;41951;49.022;12.066;2023-12-20T03:09:01;8.23;;;5.13;;
56075;SDS011;41951;49.022;12.066;2023-12-20T03:11:30;8.07;;;4.82;;
56075;SDS011;41951;49.022;12.066;2023-12-20T03:13:56;9.50;;;5.40;;
56075;SDS011;41951;49.022;12.066;2023-12-20T03:16:22;7.50;;;4.68;;
56075;SDS011;41951;49.022;12.066;2023-12-20T03:18:49;8.23;;;4.45;;
56075;SDS011;41951;49.022;12.066;2023-12-20T03:21:14;8.00;;;4.60;;
56075;SDS011;41951;49.022;12.066;2023-12-20T03:23:40;6.25;;;4.00;;
56075;SDS011;41951;49.022;12.066;2023-12-20T03:26:07;7.15;;;4.35;;
56075;SDS011;41951;49.022;12.066;2023-12-20T03:28:33;7.78;;;4.40;;
56075;SDS011;41951;49.022;12.066;2023-12-20T03:30:59;7.05;;;3.80;;
56075;SDS011;41951;49.022;12.066;2023-12-20T03:33:25;6.63;;;3.85;;
56075;SDS011;41951;49.022;12.066;2023-12-20T03:35:50;7.10;;;4.13;;
56075;SDS011;41951;49.022;12.066;2023-12-20T03:38:16;6.95;;;3.90;;
56075;SDS011;41951;49.022;12.066;2023-12-20T03:40:42;6.45;;;3.85;;
56075;SDS011;41951;49.022;12.066;2023-12-20T03:43:07;7.28;;;3.95;;
56075;SDS011;41951;49.022;12.066;2023-12-20T03:45:33;8.52;;;4.15;;
56075;SDS011;41951;49.022;12.066;2023-12-20T03:47:59;8.27;;;4.22;;
56075;SDS011;41951;49.022;12.066;2023-12-20T03:50:25;19.77;;;10.75;;
56075;SDS011;41951;49.022;12.066;2023-12-20T03:52:50;8.32;;;5.32;;
56075;SDS011;41951;49.022;12.066;2023-12-20T03:55:16;11.15;;;6.22;;
56075;SDS011;41951;49.022;12.066;2023-12-20T03:57:42;8.27;;;4.50;;
56075;SDS011;41951;49.022;12.066;2023-12-20T04:00:08;10.27;;;6.07;;
56075;SDS011;41951;49.022;12.066;2023-12-20T04:02:37;16.10;;;9.07;;
56075;SDS011;41951;49.022;12.066;2023-12-20T04:05:04;8.82;;;4.30;;
56075;SDS011;41951;49.022;12.066;2023-12-20T04:07:30;7.70;;;3.80;;
56075;SDS011;41951;49.022;12.066;2023-12-20T04:09:55;8.38;;;4.65;;
56075;SDS011;41951;49.022;12.066;2023-12-20T04:12:21;12.18;;;5.00;;
56075;SDS011;41951;49.022;12.066;2023-12-20T04:14:46;7.40;;;4.93;;
56075;SDS011;41951;49.022;12.066;2023-12-20T04:17:12;8.70;;;4.65;;
56075;SDS011;41951;49.022;12.066;2023-12-20T04:19:38;7.07;;;4.18;;
56075;SDS011;41951;49.022;12.066;2023-12-20T04:22:03;6.90;;;4.22;;
56075;SDS011;41951;49.022;12.066;2023-12-20T04:24:29;6.53;;;3.47;;
56075;SDS011;41951;49.022;12.066;2023-12-20T04:26:54;8.60;;;4.65;;
56075;SDS011;41951;49.022;12.066;2023-12-20T04:29:20;6.97;;;4.20;;
56075;SDS011;41951;49.022;12.066;2023-12-20T04:31:45;7.57;;;3.60;;
56075;SDS011;41951;49.022;12.066;2023-12-20T04:34:11;5.97;;;3.70;;
56075;SDS011;41951;49.022;12.066;2023-12-20T04:36:36;9.32;;;3.78;;
56075;SDS011;41951;49.022;12.066;2023-12-20T04:39:02;6.55;;;3.65;;
56075;SDS011;41951;49.022;12.066;2023-12-20T04:41:28;6.95;;;3.28;;
56075;SDS011;41951;49.022;12.066;2023-12-20T04:43:53;8.30;;;3.58;;
56075;SDS011;41951;49.022;12.066;2023-12-20T04:46:19;5.25;;;3.08;;
56075;SDS011;41951;49.022;12.066;2023-12-20T04:48:44;5.53;;;3.13;;
56075;SDS011;41951;49.022;12.066;2023-12-20T04:51:10;4.75;;;3.08;;
56075;SDS011;41951;49.022;12.066;2023-12-20T04:53:36;5.78;;;3.30;;
56075;SDS011;41951;49.022;12.066;2023-12-20T04:56:01;6.50;;;3.53;;
56075;SDS011;41951;49.022;12.066;2023-12-20T04:58:27;4.57;;;2.80;;
56075;SDS011;41951;49.022;12.066;2023-12-20T05:00:53;5.47;;;2.92;;
56075;SDS011;41951;49.022;12.066;2023-12-20T05:03:18;4.88;;;3.15;;
56075;SDS011;41951;49.022;12.066;2023-12-20T05:05:44;7.35;;;3.63;;
56075;SDS011;41951;49.022;12.066;2023-12-20T05:08:09;8.32;;;3.83;;
56075;SDS011;41951;49.022;12.066;2023-12-20T05:10:35;5.82;;;3.60;;
56075;SDS011;41951;49.022;12.066;2023-12-20T05:13:01;5.55;;;3.28;;
56075;SDS011;41951;49.022;12.066;2023-12-20T05:15:27;5.68;;;3.00;;
56075;SDS011;41951;49.022;12.066;2023-12-20T05:17:53;5.03;;;3.10;;
56075;SDS011;41951;49.022;12.066;2023-12-20T05:20:18;4.80;;;2.70;;
56075;SDS011;41951;49.022;12.066;2023-12-20T05:22:44;5.18;;;2.70;;
56075;SDS011;41951;49.022;12.066;2023-12-20T05:25:10;3.75;;;2.20;;
56075;SDS011;41951;49.022;12.066;2023-12-20T05:27:35;5.28;;;2.78;;
56075;SDS011;41951;49.022;12.066;2023-12-20T05:30:01;3.78;;;2.05;;
56075;SDS011;41951;49.022;12.066;2023-12-20T05:32:27;4.57;;;2.30;;
56075;SDS011;41951;49.022;12.066;2023-12-20T05:34:52;4.03;;;2.22;;
56075;SDS011;41951;49.022;12.066;2023-12-20T05:37:18;5.32;;;2.88;;
56075;SDS011;41951;49.022;12.066;2023-12-20T05:39:44;6.60;;;2.72;;
56075;SDS011;41951;49.022;12.066;2023-12-20T05:42:09;4.47;;;2.55;;
56075;SDS011;41951;49.022;12.066;2023-12-20T05:44:35;4.85;;;2.80;;
56075;SDS011;41951;49.022;12.066;2023-12-20T05:47:01;4.13;;;2.58;;
56075;SDS011;41951;49.022;12.066;2023-12-20T05:49:27;4.32;;;2.53;;
56075;SDS011;41951;49.022;12.066;2023-12-20T05:51:52;3.72;;;2.28;;
56075;SDS011;41951;49.022;12.066;2023-12-20T05:54:19;6.53;;;3.28;;
56075;SDS011;41951;49.022;12.066;2023-12-20T05:56:44;4.95;;;2.88;;
56075;SDS011;41951;49.022;12.066;2023-12-20T05:59:16;5.18;;;2.88;;
56075;SDS011;41951;49.022;12.066;2023-12-20T06:01:42;6.20;;;2.70;;
56075;SDS011;41951;49.022;12.066;2023-12-20T06:04:07;3.88;;;2.53;;
56075;SDS011;41951;49.022;12.066;2023-12-20T06:06:33;4.93;;;2.72;;
56075;SDS011;41951;49.022;12.066;2023-12-20T06:08:58;5.75;;;2.97;;
56075;SDS011;41951;49.022;12.066;2023-12-20T06:11:24;4.28;;;2.70;;
56075;SDS011;41951;49.022;12.066;2023-12-20T06:13:51;4.10;;;2.30;;
56075;SDS011;41951;49.022;12.066;2023-12-20T06:16:18;5.53;;;2.17;;
56075;SDS011;41951;49.022;12.066;2023-12-20T06:18:43;4.00;;;2.10;;
56075;SDS011;41951;49.022;12.066;2023-12-20T06:21:09;4.90;;;2.30;;
56075;SDS011;41951;49.022;12.066;2023-12-20T06:23:37;3.90;;;2.15;;
56075;SDS011;41951;49.022;12.066;2023-12-20T06:26:03;4.13;;;1.88;;
56075;SDS011;41951;49.022;12.066;2023-12-20T06:28:29;3.50;;;1.83;;
56075;SDS011;41951;49.022;12.066;2023-12-20T06:30:55;4.63;;;1.83;;
56075;SDS011;41951;49.022;12.066;2023-12-20T06:33:21;2.55;;;1.45;;
56075;SDS011;41951;49.022;12.066;2023-12-20T06:35:48;2.22;;;1.40;;
56075;SDS011;41951;49.022;12.066;2023-12-20T06:38:14;2.83;;;1.40;;
56075;SDS011;41951;49.022;12.066;2023-12-20T06:40:39;2.08;;;1.05;;
56075;SDS011;41951;49.022;12.066;2023-12-20T06:43:05;1.63;;;1.05;;
56075;SDS011;41951;49.022;12.066;2023-12-20T06:45:31;2.17;;;1.08;;
56075;SDS011;41951;49.022;12.066;2023-12-20T06:47:57;1.15;;;0.80;;
56075;SDS011;41951;49.022;12.066;2023-12-20T06:50:23;1.45;;;0.88;;
56075;SDS011;41951;49.022;12.066;2023-12-20T06:52:51;1.98;;;1.10;;
56075;SDS011;41951;49.022;12.066;2023-12-20T06:55:17;2.38;;;1.20;;
56075;SDS011;41951;49.022;12.066;2023-12-20T06:57:43;3.75;;;1.17;;
56075;SDS011;41951;49.022;12.066;2023-12-20T07:00:10;2.80;;;1.50;;
56075;SDS011;41951;49.022;12.066;2023-12-20T07:02:36;2.80;;;1.45;;
56075;SDS011;41951;49.022;12.066;2023-12-20T07:05:02;3.78;;;1.60;;
56075;SDS011;41951;49.022;12.066;2023-12-20T07:07:28;2.83;;;1.13;;
56075;SDS011;41951;49.022;12.066;2023-12-20T07:09:53;2.35;;;1.15;;
56075;SDS011;41951;49.022;12.066;2023-12-20T07:12:19;2.70;;;1.48;;
56075;SDS011;41951;49.022;12.066;2023-12-20T07:14:45;3.00;;;1.20;;
56075;SDS011;41951;49.022;12.066;2023-12-20T07:17:11;1.95;;;1.02;;
56075;SDS011;41951;49.022;12.066;2023-12-20T07:19:38;1.65;;;0.85;;
56075;SDS011;41951;49.022;12.066;2023-12-20T07:22:05;1.08;;;0.70;;
56075;SDS011;41951;49.022;12.066;2023-12-20T07:24:31;1.92;;;0.70;;
56075;SDS011;41951;49.022;12.066;2023-12-20T07:26:58;1.60;;;0.90;;
56075;SDS011;41951;49.022;12.066;2023-12-20T07:29:24;1.73;;;0.90;;
56075;SDS011;41951;49.022;12.066;2023-12-20T07:31:50;0.85;;;0.60;;
56075;SDS011;41951;49.022;12.066;2023-12-20T07:34:17;1.55;;;0.90;;
56075;SDS011;41951;49.022;12.066;2023-12-20T07:36:43;1.80;;;0.57;;
56075;SDS011;41951;49.022;12.066;2023-12-20T07:39:08;0.75;;;0.50;;
56075;SDS011;41951;49.022;12.066;2023-12-20T07:41:35;1.67;;;0.70;;
56075;SDS011;41951;49.022;12.066;2023-12-20T07:44:00;0.95;;;0.60;;
56075;SDS011;41951;49.022;12.066;2023-12-20T07:46:26;1.33;;;0.75;;
56075;SDS011;41951;49.022;12.066;2023-12-20T07:48:51;1.90;;;1.00;;
56075;SDS011;41951;49.022;12.066;2023-12-20T07:51:17;1.90;;;1.00;;
56075;SDS011;41951;49.022;12.066;2023-12-20T07:53:43;1.15;;;0.90;;
56075;SDS011;41951;49.022;12.066;2023-12-20T07:56:15;1.02;;;0.80;;
56075;SDS011;41951;49.022;12.066;2023-12-20T07:58:44;3.08;;;0.95;;
56075;SDS011;41951;49.022;12.066;2023-12-20T08:01:10;2.22;;;0.90;;
56075;SDS011;41951;49.022;12.066;2023-12-20T08:03:37;1.05;;;0.80;;
56075;SDS011;41951;49.022;12.066;2023-12-20T08:06:03;1.60;;;0.80;;
56075;SDS011;41951;49.022;12.066;2023-12-20T08:08:29;1.08;;;0.73;;
56075;SDS011;41951;49.022;12.066;2023-12-20T08:10:56;2.47;;;0.90;;
56075;SDS011;41951;49.022;12.066;2023-12-20T08:13:24;0.75;;;0.60;;
56075;SDS011;41951;49.022;12.066;2023-12-20T08:15:51;0.80;;;0.47;;
56075;SDS011;41951;49.022;12.066;2023-12-20T08:18:20;1.38;;;0.70;;
56075;SDS011;41951;49.022;12.066;2023-12-20T08:20:46;0.98;;;0.82;;
56075;SDS011;41951;49.022;12.066;2023-12-20T08:23:13;1.92;;;0.80;;
56075;SDS011;41951;49.022;12.066;2023-12-20T08:25:39;1.30;;;0.80;;
56075;SDS011;41951;49.022;12.066;2023-12-20T08:28:04;0.75;;;0.75;;
56075;SDS011;41951;49.022;12.066;2023-12-20T08:30:30;1.13;;;0.80;;
56075;SDS011;41951;49.022;12.066;2023-12-20T08:32:56;1.48;;;0.75;;
56075;SDS011;41951;49.022;12.066;2023-12-20T08:35:21;0.88;;;0.60;;
56075;SDS011;41951;49.022;12.066;2023-12-20T08:37:47;0.85;;;0.70;;
56075;SDS011;41951;49.022;12.066;2023-12-20T08:40:12;3.03;;;0.70;;
56075;SDS011;41951;49.022;12.066;2023-12-20T08:42:38;0.88;;;0.70;;
56075;SDS011;41951;49.022;12.066;2023-12-20T08:45:04;1.33;;;0.77;;
56075;SDS011;41951;49.022;12.066;2023-12-20T08:47:30;1.80;;;1.42;;
56075;SDS011;41951;49.022;12.066;2023-12-20T08:49:55;1.52;;;0.82;;
56075;SDS011;41951;49.022;12.066;2023-12-20T08:52:23;2.13;;;0.95;;
56075;SDS011;41951;49.022;12.066;2023-12-20T08:54:49;2.97;;;0.80;;
56075;SDS011;41951;49.022;12.066;2023-12-20T08:57:17;1.25;;;0.80;;
56075;SDS011;41951;49.022;12.066;2023-12-20T08:59:45;1.10;;;0.75;;
56075;SDS011;41951;49.022;12.066;2023-12-20T09:02:11;1.48;;;0.80;;
56075;SDS011;41951;49.022;12.066;2023-12-20T09:04:37;1.25;;;0.80;;
56075;SDS011;41951;49.022;12.066;2023-12-20T09:07:03;2.15;;;1.00;;
56075;SDS011;41951;49.022;12.066;2023-12-20T09:09:28;1.45;;;0.90;;
56075;SDS011;41951;49.022;12.066;2023-12-20T09:11:54;5.93;;;0.85;;
56075;SDS011;41951;49.022;12.066;2023-12-20T09:14:20;2.47;;;0.90;;
56075;SDS011;41951;49.022;12.066;2023-12-20T09:16:45;1.00;;;0.80;;
56075;SDS011;41951;49.022;12.066;2023-12-20T09:19:11;2.47;;;0.93;;
56075;SDS011;41951;49.022;12.066;2023-12-20T09:21:36;2.25;;;1.20;;
56075;SDS011;41951;49.022;12.066;2023-12-20T09:24:02;1.67;;;0.93;;
56075;SDS011;41951;49.022;12.066;2023-12-20T09:26:28;1.73;;;0.77;;
56075;SDS011;41951;49.022;12.066;2023-12-20T09:28:53;1.00;;;0.80;;
56075;SDS011;41951;49.022;12.066;2023-12-20T09:31:19;1.42;;;0.90;;
56075;SDS011;41951;49.022;12.066;2023-12-20T09:33:44;1.88;;;1.00;;
56075;SDS011;41951;49.022;12.066;2023-12-20T09:36:10;1.67;;;1.00;;
56075;SDS011;41951;49.022;12.066;2023-12-20T09:38:35;1.70;;;1.10;;
56075;SDS011;41951;49.022;12.066;2023-12-20T09:41:01;2.88;;;1.20;;
56075;SDS011;41951;49.022;12.066;2023-12-20T09:43:29;2.42;;;1.40;;
56075;SDS011;41951;49.022;12.066;2023-12-20T09:45:56;3.03;;;1.65;;
56075;SDS011;41951;49.022;12.066;2023-12-20T09:48:25;4.93;;;2.05;;
56075;SDS011;41951;49.022;12.066;2023-12-20T09:50:52;4.30;;;2.50;;
56075;SDS011;41951;49.022;12.066;2023-12-20T09:53:18;4.68;;;2.60;;
56075;SDS011;41951;49.022;12.066;2023-12-20T09:55:44;3.80;;;2.40;;
56075;SDS011;41951;49.022;12.066;2023-12-20T09:58:10;4.40;;;2.80;;
56075;SDS011;41951;49.022;12.066;2023-12-20T10:00:35;6.07;;;2.58;;
56075;SDS011;41951;49.022;12.066;2023-12-20T10:03:01;4.10;;;2.30;;
56075;SDS011;41951;49.022;12.066;2023-12-20T10:05:27;4.43;;;3.10;;
56075;SDS011;41951;49.022;12.066;2023-12-20T10:07:54;4.90;;;2.67;;
56075;SDS011;41951;49.022;12.066;2023-12-20T10:10:20;5.55;;;3.00;;
56075;SDS011;41951;49.022;12.066;2023-12-20T10:15:46;1.88;;;1.27;;
56075;SDS011;41951;49.022;12.066;2023-12-20T10:18:12;2.45;;;1.48;;
56075;SDS011;41951;49.022;12.066;2023-12-20T10:20:37;3.42;;;1.77;;
56075;SDS011;41951;49.022;12.066;2023-12-20T10:23:05;3.22;;;1.25;;
56075;SDS011;41951;49.022;12.066;2023-12-20T10:25:31;2.05;;;1.20;;
56075;SDS011;41951;49.022;12.066;2023-12-20T10:30:39;2.00;;;1.20;;
56075;SDS011;41951;49.022;12.066;2023-12-20T10:33:06;2.50;;;1.20;;
56075;SDS011;41951;49.022;12.066;2023-12-20T10:35:33;2.53;;;1.20;;
56075;SDS011;41951;49.022;12.066;2023-12-20T10:37:59;2.40;;;1.40;;
56075;SDS011;41951;49.022;12.066;2023-12-20T10:40:29;2.53;;;1.52;;
56075;SDS011;41951;49.022;12.066;2023-12-20T10:42:55;2.55;;;1.40;;
56075;SDS011;41951;49.022;12.066;2023-12-20T10:45:21;3.28;;;1.85;;
56075;SDS011;41951;49.022;12.066;2023-12-20T10:47:48;2.97;;;1.80;;
56075;SDS011;41951;49.022;12.066;2023-12-20T10:50:15;3.03;;;1.60;;
56075;SDS011;41951;49.022;12.066;2023-12-20T10:52:41;6.18;;;2.10;;
56075;SDS011;41951;49.022;12.066;2023-12-20T10:55:09;3.05;;;1.95;;
56075;SDS011;41951;49.022;12.066;2023-12-20T10:57:35;2.97;;;1.70;;
56075;SDS011;41951;49.022;12.066;2023-12-20T11:00:01;3.97;;;1.60;;
56075;SDS011;41951;49.022;12.066;2023-12-20T11:02:29;3.60;;;2.03;;
56075;SDS011;41951;49.022;12.066;2023-12-20T11:07:45;3.08;;;1.60;;
56075;SDS011;41951;49.022;12.066;2023-12-20T11:10:20;2.85;;;1.52;;
56075;SDS011;41951;49.022;12.066;2023-12-20T11:12:53;2.97;;;1.70;;
56075;SDS011;41951;49.022;12.066;2023-12-20T11:15:23;3.17;;;1.88;;
56075;SDS011;41951;49.022;12.066;2023-12-20T11:17:55;2.78;;;1.80;;
56075;SDS011;41951;49.022;12.066;2023-12-20T11:20:34;4.78;;;2.10;;
56075;SDS011;41951;49.022;12.066;2023-12-20T11:23:02;3.50;;;2.30;;
56075;SDS011;41951;49.022;12.066;2023-12-20T11:25:27;3.33;;;1.52;;
56075;SDS011;41951;49.022;12.066;2023-12-20T11:28:12;5.28;;;1.63;;
56075;SDS011;41951;49.022;12.066;2023-12-20T11:30:41;4.38;;;1.98;;
56075;SDS011;41951;49.022;12.066;2023-12-20T11:33:07;7.47;;;1.75;;
56075;SDS011;41951;49.022;12.066;2023-12-20T11:35:33;4.75;;;1.98;;
56075;SDS011;41951;49.022;12.066;2023-12-20T11:38:01;2.85;;;1.42;;
56075;SDS011;41951;49.022;12.066;2023-12-20T11:40:27;3.38;;;1.48;;
56075;SDS011;41951;49.022;12.066;2023-12-20T11:42:52;4.78;;;1.98;;
56075;SDS011;41951;49.022;12.066;2023-12-20T11:45:21;3.72;;;1.60;;
56075;SDS011;41951;49.022;12.066;2023-12-20T11:47:49;2.88;;;1.40;;
56075;SDS011;41951;49.022;12.066;2023-12-20T11:50:16;6.00;;;2.10;;
56075;SDS011;41951;49.022;12.066;2023-12-20T11:52:42;4.22;;;1.60;;
56075;SDS011;41951;49.022;12.066;2023-12-20T11:55:08;5.05;;;1.70;;
56075;SDS011;41951;49.022;12.066;2023-12-20T11:57:33;6.85;;;1.40;;
56075;SDS011;41951;49.022;12.066;2023-12-20T12:00:00;6.28;;;1.83;;
56075;SDS011;41951;49.022;12.066;2023-12-20T12:02:26;5.53;;;1.40;;
56075;SDS011;41951;49.022;12.066;2023-12-20T12:04:52;5.35;;;1.70;;
56075;SDS011;41951;49.022;12.066;2023-12-20T12:07:17;5.53;;;1.40;;
56075;SDS011;41951;49.022;12.066;2023-12-20T12:09:43;6.75;;;1.80;;
56075;SDS011;41951;49.022;12.066;2023-12-20T12:12:09;6.53;;;1.40;;
56075;SDS011;41951;49.022;12.066;2023-12-20T12:14:37;3.30;;;1.35;;
56075;SDS011;41951;49.022;12.066;2023-12-20T12:17:03;3.88;;;1.30;;
56075;SDS011;41951;49.022;12.066;2023-12-20T12:19:29;5.10;;;1.73;;
56075;SDS011;41951;49.022;12.066;2023-12-20T12:24:38;5.50;;;1.50;;
56075;SDS011;41951;49.022;12.066;2023-12-20T12:27:07;5.35;;;1.40;;
56075;SDS011;41951;49.022;12.066;2023-12-20T12:29:34;6.28;;;1.42;;
56075;SDS011;41951;49.022;12.066;2023-12-20T12:32:00;4.82;;;1.50;;
56075;SDS011;41951;49.022;12.066;2023-12-20T12:34:28;8.25;;;1.33;;
56075;SDS011;41951;49.022;12.066;2023-12-20T12:36:54;4.38;;;1.42;;
56075;SDS011;41951;49.022;12.066;2023-12-20T12:39:20;4.80;;;1.50;;
56075;SDS011;41951;49.022;12.066;2023-12-20T12:41:45;5.72;;;1.58;;
56075;SDS011;41951;49.022;12.066;2023-12-20T12:44:11;4.35;;;1.40;;
56075;SDS011;41951;49.022;12.066;2023-12-20T12:46:36;5.15;;;1.23;;
56075;SDS011;41951;49.022;12.066;2023-12-20T12:49:02;5.68;;;1.63;;
56075;SDS011;41951;49.022;12.066;2023-12-20T12:51:29;11.27;;;2.20;;
56075;SDS011;41951;49.022;12.066;2023-12-20T12:53:54;4.88;;;2.03;;
56075;SDS011;41951;49.022;12.066;2023-12-20T12:56:20;6.15;;;1.70;;
56075;SDS011;41951;49.022;12.066;2023-12-20T12:58:47;6.53;;;1.05;;
56075;SDS011;41951;49.022;12.066;2023-12-20T13:01:12;5.53;;;1.27;;
56075;SDS011;41951;49.022;12.066;2023-12-20T13:03:39;2.78;;;1.48;;
56075;SDS011;41951;49.022;12.066;2023-12-20T13:06:04;3.40;;;1.52;;
56075;SDS011;41951;49.022;12.066;2023-12-20T13:08:31;4.97;;;1.80;;
56075;SDS011;41951;49.022;12.066;2023-12-20T13:10:57;4.75;;;1.80;;
56075;SDS011;41951;49.022;12.066;2023-12-20T13:13:25;5.68;;;1.40;;
56075;SDS011;41951;49.022;12.066;2023-12-20T13:15:51;4.28;;;1.40;;
56075;SDS011;41951;49.022;12.066;2023-12-20T13:18:19;4.93;;;1.38;;
56075;SDS011;41951;49.022;12.066;2023-12-20T13:20:48;4.65;;;2.00;;
56075;SDS011;41951;49.022;12.066;2023-12-20T13:23:14;6.40;;;1.70;;
56075;SDS011;41951;49.022;12.066;2023-12-20T13:25:41;3.58;;;1.45;;
56075;SDS011;41951;49.022;12.066;2023-12-20T13:28:06;6.38;;;1.75;;
56075;SDS011;41951;49.022;12.066;2023-12-20T13:30:33;2.95;;;1.40;;
56075;SDS011;41951;49.022;12.066;2023-12-20T13:32:59;4.30;;;1.70;;
56075;SDS011;41951;49.022;12.066;2023-12-20T13:35:24;4.35;;;1.77;;
56075;SDS011;41951;49.022;12.066;2023-12-20T13:37:50;5.88;;;1.70;;
56075;SDS011;41951;49.022;12.066;2023-12-20T13:40:15;4.25;;;1.77;;
56075;SDS011;41951;49.022;12.066;2023-12-20T13:42:41;5.05;;;1.80;;
56075;SDS011;41951;49.022;12.066;2023-12-20T13:45:07;3.03;;;1.50;;
56075;SDS011;41951;49.022;12.066;2023-12-20T13:47:33;3.35;;;1.50;;
56075;SDS011;41951;49.022;12.066;2023-12-20T13:49:59;4.95;;;1.48;;
56075;SDS011;41951;49.022;12.066;2023-12-20T13:52:24;3.00;;;1.30;;
56075;SDS011;41951;49.022;12.066;2023-12-20T13:54:50;5.03;;;1.52;;
56075;SDS011;41951;49.022;12.066;2023-12-20T13:57:15;7.00;;;1.60;;
56075;SDS011;41951;49.022;12.066;2023-12-20T13:59:41;5.05;;;1.55;;
56075;SDS011;41951;49.022;12.066;2023-12-20T14:02:06;8.38;;;2.67;;
56075;SDS011;41951;49.022;12.066;2023-12-20T14:04:32;5.72;;;1.40;;
56075;SDS011;41951;49.022;12.066;2023-12-20T14:06:58;4.78;;;1.95;;
56075;SDS011;41951;49.022;12.066;2023-12-20T14:09:23;4.47;;;1.80;;
56075;SDS011;41951;49.022;12.066;2023-12-20T14:11:49;3.25;;;1.55;;
56075;SDS011;41951;49.022;12.066;2023-12-20T14:14:15;4.78;;;1.52;;
56075;SDS011;41951;49.022;12.066;2023-12-20T14:16:41;2.90;;;1.33;;
56075;SDS011;41951;49.022;12.066;2023-12-20T14:19:09;2.63;;;1.05;;
56075;SDS011;41951;49.022;12.066;2023-12-20T14:21:35;4.88;;;1.73;;
56075;SDS011;41951;49.022;12.066;2023-12-20T14:24:01;3.92;;;1.65;;
56075;SDS011;41951;49.022;12.066;2023-12-20T14:26:27;3.47;;;1.60;;
56075;SDS011;41951;49.022;12.066;2023-12-20T14:28:52;2.95;;;1.60;;
56075;SDS011;41951;49.022;12.066;2023-12-20T14:31:19;3.38;;;1.55;;
56075;SDS011;41951;49.022;12.066;2023-12-20T14:33:44;4.40;;;1.52;;
56075;SDS011;41951;49.022;12.066;2023-12-20T14:36:11;3.30;;;1.88;;
56075;SDS011;41951;49.022;12.066;2023-12-20T14:38:36;8.15;;;1.73;;